sensor_id;sensor_type;location;lat;lon;timestamp;temperature;humidity
17827;DHT22;9038;48.208;16.308;2023-05-20T00:00:27;14.50;99.90
17827;DHT22;9038;48.208;16.308;2023-05-20T00:02:29;14.50;99.90
17827;DHT22;9038;48.208;16.308;2023-05-20T00:04:30;14.40;99.90
17827;DHT22;9038;48.208;16.308;2023-05-20T00:06:32;14.40;99.90
17827;DHT22;9038;48.208;16.308;2023-05-20T00:08:34;14.40;99.90
17827;DHT22;9038;48.208;16.308;2023-05-20T00:10:37;14.40;99.90
17827;DHT22;9038;48.208;16.308;2023-05-20T00:12:39;14.50;99.90
17827;DHT22;9038;48.208;16.308;2023-05-20T00:14:40;14.50;99.90
17827;DHT22;9038;48.208;16.308;2023-05-20T00:16:42;14.50;99.90
17827;DHT22;9038;48.208;16.308;2023-05-20T00:18:44;14.50;99.90
17827;DHT22;9038;48.208;16.308;2023-05-20T00:20:45;14.50;99.90
17827;DHT22;9038;48.208;16.308;2023-05-20T00:22:47;14.50;99.90
17827;DHT22;9038;48.208;16.308;2023-05-20T00:24:49;14.50;99.90
17827;DHT22;9038;48.208;16.308;2023-05-20T00:26:52;14.40;99.90
17827;DHT22;9038;48.208;16.308;2023-05-20T00:28:53;14.40;99.90
17827;DHT22;9038;48.208;16.308;2023-05-20T00:30:55;14.40;99.90
17827;DHT22;9038;48.208;16.308;2023-05-20T00:32:57;14.30;99.90
17827;DHT22;9038;48.208;16.308;2023-05-20T00:34:59;14.40;99.90
17827;DHT22;9038;48.208;16.308;2023-05-20T00:37:00;14.40;99.90
17827;DHT22;9038;48.208;16.308;2023-05-20T00:39:02;14.30;99.90
17827;DHT22;9038;48.208;16.308;2023-05-20T00:41:04;14.30;99.90
17827;DHT22;9038;48.208;16.308;2023-05-20T00:43:08;14.30;99.90
17827;DHT22;9038;48.208;16.308;2023-05-20T00:45:10;14.30;99.90
17827;DHT22;9038;48.208;16.308;2023-05-20T00:47:11;14.20;99.90
17827;DHT22;9038;48.208;16.308;2023-05-20T00:49:13;14.20;99.90
17827;DHT22;9038;48.208;16.308;2023-05-20T00:51:15;14.20;99.90
17827;DHT22;9038;48.208;16.308;2023-05-20T00:53:17;14.20;99.90
17827;DHT22;9038;48.208;16.308;2023-05-20T00:55:19;14.10;99.90
17827;DHT22;9038;48.208;16.308;2023-05-20T00:57:21;14.10;99.90
17827;DHT22;9038;48.208;16.308;2023-05-20T00:59:24;14.10;99.90
17827;DHT22;9038;48.208;16.308;2023-05-20T01:01:26;14.10;99.90
17827;DHT22;9038;48.208;16.308;2023-05-20T01:03:27;14.00;99.90
17827;DHT22;9038;48.208;16.308;2023-05-20T01:05:29;14.00;99.90
17827;DHT22;9038;48.208;16.308;2023-05-20T01:07:31;14.00;99.90
17827;DHT22;9038;48.208;16.308;2023-05-20T01:09:33;14.00;99.90
17827;DHT22;9038;48.208;16.308;2023-05-20T01:11:36;14.10;99.90
17827;DHT22;9038;48.208;16.308;2023-05-20T01:13:51;14.10;99.90
17827;DHT22;9038;48.208;16.308;2023-05-20T01:15:56;14.10;99.90
17827;DHT22;9038;48.208;16.308;2023-05-20T01:18:00;14.00;99.90
17827;DHT22;9038;48.208;16.308;2023-05-20T01:20:02;14.00;99.90
17827;DHT22;9038;48.208;16.308;2023-05-20T01:22:06;14.00;99.90
17827;DHT22;9038;48.208;16.308;2023-05-20T01:24:13;14.00;99.90
17827;DHT22;9038;48.208;16.308;2023-05-20T01:26:14;13.90;99.90
17827;DHT22;9038;48.208;16.308;2023-05-20T01:28:18;13.90;99.90
17827;DHT22;9038;48.208;16.308;2023-05-20T01:30:20;13.90;99.90
17827;DHT22;9038;48.208;16.308;2023-05-20T01:32:23;13.90;99.90
17827;DHT22;9038;48.208;16.308;2023-05-20T01:34:26;13.80;99.90
17827;DHT22;9038;48.208;16.308;2023-05-20T01:36:28;13.80;99.90
17827;DHT22;9038;48.208;16.308;2023-05-20T01:38:30;13.80;99.90
17827;DHT22;9038;48.208;16.308;2023-05-20T01:40:34;13.80;99.90
17827;DHT22;9038;48.208;16.308;2023-05-20T01:42:36;13.80;99.90
17827;DHT22;9038;48.208;16.308;2023-05-20T01:44:39;13.80;99.90
17827;DHT22;9038;48.208;16.308;2023-05-20T01:46:41;13.80;99.90
17827;DHT22;9038;48.208;16.308;2023-05-20T01:48:42;13.80;99.90
17827;DHT22;9038;48.208;16.308;2023-05-20T01:50:44;13.80;99.90
17827;DHT22;9038;48.208;16.308;2023-05-20T01:52:46;13.80;99.90
17827;DHT22;9038;48.208;16.308;2023-05-20T01:54:47;13.80;99.90
17827;DHT22;9038;48.208;16.308;2023-05-20T01:56:52;13.70;99.90
17827;DHT22;9038;48.208;16.308;2023-05-20T01:58:53;13.70;99.90
17827;DHT22;9038;48.208;16.308;2023-05-20T02:00:55;13.60;99.90
17827;DHT22;9038;48.208;16.308;2023-05-20T02:02:57;13.60;99.90
17827;DHT22;9038;48.208;16.308;2023-05-20T02:04:58;13.60;99.90
17827;DHT22;9038;48.208;16.308;2023-05-20T02:07:00;13.60;99.90
17827;DHT22;9038;48.208;16.308;2023-05-20T02:09:02;13.60;99.90
17827;DHT22;9038;48.208;16.308;2023-05-20T02:11:04;13.60;99.90
17827;DHT22;9038;48.208;16.308;2023-05-20T02:13:07;13.60;99.90
17827;DHT22;9038;48.208;16.308;2023-05-20T02:15:09;13.60;99.90
17827;DHT22;9038;48.208;16.308;2023-05-20T02:17:10;13.60;99.90
17827;DHT22;9038;48.208;16.308;2023-05-20T02:19:13;13.60;99.90
17827;DHT22;9038;48.208;16.308;2023-05-20T02:21:22;13.60;99.90
17827;DHT22;9038;48.208;16.308;2023-05-20T02:23:24;13.60;99.90
17827;DHT22;9038;48.208;16.308;2023-05-20T02:25:25;13.60;99.90
17827;DHT22;9038;48.208;16.308;2023-05-20T02:27:27;13.60;99.90
17827;DHT22;9038;48.208;16.308;2023-05-20T02:29:30;13.50;99.90
17827;DHT22;9038;48.208;16.308;2023-05-20T02:31:32;13.50;99.90
17827;DHT22;9038;48.208;16.308;2023-05-20T02:33:34;13.50;99.90
17827;DHT22;9038;48.208;16.308;2023-05-20T02:35:35;13.50;99.90
17827;DHT22;9038;48.208;16.308;2023-05-20T02:37:37;13.50;99.90
17827;DHT22;9038;48.208;16.308;2023-05-20T02:39:39;13.50;99.90
17827;DHT22;9038;48.208;16.308;2023-05-20T02:41:41;13.40;99.90
17827;DHT22;9038;48.208;16.308;2023-05-20T02:43:42;13.40;99.90
17827;DHT22;9038;48.208;16.308;2023-05-20T02:45:46;13.30;99.90
17827;DHT22;9038;48.208;16.308;2023-05-20T02:47:48;13.30;99.90
17827;DHT22;9038;48.208;16.308;2023-05-20T02:49:49;13.30;99.90
17827;DHT22;9038;48.208;16.308;2023-05-20T02:51:51;13.30;99.90
17827;DHT22;9038;48.208;16.308;2023-05-20T02:53:53;13.30;99.90
17827;DHT22;9038;48.208;16.308;2023-05-20T02:55:54;13.30;99.90
17827;DHT22;9038;48.208;16.308;2023-05-20T02:57:56;13.30;99.90
17827;DHT22;9038;48.208;16.308;2023-05-20T02:59:58;13.30;99.90
17827;DHT22;9038;48.208;16.308;2023-05-20T03:02:01;13.30;99.90
17827;DHT22;9038;48.208;16.308;2023-05-20T03:04:03;13.20;99.90
17827;DHT22;9038;48.208;16.308;2023-05-20T03:06:04;13.20;99.90
17827;DHT22;9038;48.208;16.308;2023-05-20T03:08:07;13.20;99.90
17827;DHT22;9038;48.208;16.308;2023-05-20T03:10:09;13.20;99.90
17827;DHT22;9038;48.208;16.308;2023-05-20T03:12:11;13.20;99.90
17827;DHT22;9038;48.208;16.308;2023-05-20T03:14:12;13.20;99.90
17827;DHT22;9038;48.208;16.308;2023-05-20T03:16:14;13.20;99.90
17827;DHT22;9038;48.208;16.308;2023-05-20T03:18:18;13.30;99.90
17827;DHT22;9038;48.208;16.308;2023-05-20T03:20:19;13.30;99.90
17827;DHT22;9038;48.208;16.308;2023-05-20T03:22:21;13.30;99.90
17827;DHT22;9038;48.208;16.308;2023-05-20T03:24:23;13.30;99.90
17827;DHT22;9038;48.208;16.308;2023-05-20T03:26:25;13.30;99.90
17827;DHT22;9038;48.208;16.308;2023-05-20T03:28:27;13.30;99.90
17827;DHT22;9038;48.208;16.308;2023-05-20T03:30:28;13.30;99.90
17827;DHT22;9038;48.208;16.308;2023-05-20T03:32:30;13.30;99.90
17827;DHT22;9038;48.208;16.308;2023-05-20T03:34:33;13.30;99.90
17827;DHT22;9038;48.208;16.308;2023-05-20T03:36:35;13.40;99.90
17827;DHT22;9038;48.208;16.308;2023-05-20T03:38:37;13.40;99.90
17827;DHT22;9038;48.208;16.308;2023-05-20T03:40:38;13.40;99.90
17827;DHT22;9038;48.208;16.308;2023-05-20T03:42:40;13.30;99.90
17827;DHT22;9038;48.208;16.308;2023-05-20T03:44:42;13.30;99.90
17827;DHT22;9038;48.208;16.308;2023-05-20T03:46:43;13.40;99.90
17827;DHT22;9038;48.208;16.308;2023-05-20T03:48:45;13.40;99.90
17827;DHT22;9038;48.208;16.308;2023-05-20T03:50:49;13.50;99.90
17827;DHT22;9038;48.208;16.308;2023-05-20T03:52:51;13.50;99.90
17827;DHT22;9038;48.208;16.308;2023-05-20T03:54:53;13.60;99.90
17827;DHT22;9038;48.208;16.308;2023-05-20T03:56:55;13.60;99.90
17827;DHT22;9038;48.208;16.308;2023-05-20T03:58:56;13.70;99.90
17827;DHT22;9038;48.208;16.308;2023-05-20T04:00:58;13.80;99.90
17827;DHT22;9038;48.208;16.308;2023-05-20T04:03:00;13.80;99.90
17827;DHT22;9038;48.208;16.308;2023-05-20T04:05:02;13.90;99.90
17827;DHT22;9038;48.208;16.308;2023-05-20T04:07:05;13.90;99.90
17827;DHT22;9038;48.208;16.308;2023-05-20T04:09:07;14.00;99.90
17827;DHT22;9038;48.208;16.308;2023-05-20T04:11:09;14.10;99.90
17827;DHT22;9038;48.208;16.308;2023-05-20T04:13:10;14.10;99.90
17827;DHT22;9038;48.208;16.308;2023-05-20T04:15:12;14.10;99.90
17827;DHT22;9038;48.208;16.308;2023-05-20T04:17:14;14.10;99.90
17827;DHT22;9038;48.208;16.308;2023-05-20T04:19:16;14.10;99.90
17827;DHT22;9038;48.208;16.308;2023-05-20T04:21:18;14.10;99.90
17827;DHT22;9038;48.208;16.308;2023-05-20T04:23:21;14.00;99.90
17827;DHT22;9038;48.208;16.308;2023-05-20T04:25:23;14.00;99.90
17827;DHT22;9038;48.208;16.308;2023-05-20T04:27:26;14.00;99.90
17827;DHT22;9038;48.208;16.308;2023-05-20T04:29:29;14.00;99.90
17827;DHT22;9038;48.208;16.308;2023-05-20T04:31:33;14.00;99.90
17827;DHT22;9038;48.208;16.308;2023-05-20T04:33:35;14.00;99.90
17827;DHT22;9038;48.208;16.308;2023-05-20T04:35:37;13.90;99.90
17827;DHT22;9038;48.208;16.308;2023-05-20T04:37:40;13.90;99.90
17827;DHT22;9038;48.208;16.308;2023-05-20T04:39:45;13.90;99.90
17827;DHT22;9038;48.208;16.308;2023-05-20T04:41:47;13.80;99.90
17827;DHT22;9038;48.208;16.308;2023-05-20T04:43:49;13.80;99.90
17827;DHT22;9038;48.208;16.308;2023-05-20T04:45:51;13.80;99.90
17827;DHT22;9038;48.208;16.308;2023-05-20T04:47:53;13.80;99.90
17827;DHT22;9038;48.208;16.308;2023-05-20T04:49:55;13.90;99.90
17827;DHT22;9038;48.208;16.308;2023-05-20T04:51:57;13.90;99.90
17827;DHT22;9038;48.208;16.308;2023-05-20T04:54:00;14.10;99.90
17827;DHT22;9038;48.208;16.308;2023-05-20T04:56:03;14.10;99.90
17827;DHT22;9038;48.208;16.308;2023-05-20T04:58:05;14.30;99.90
17827;DHT22;9038;48.208;16.308;2023-05-20T05:00:07;14.50;99.90
17827;DHT22;9038;48.208;16.308;2023-05-20T05:02:09;14.80;99.90
17827;DHT22;9038;48.208;16.308;2023-05-20T05:04:11;15.10;99.90
17827;DHT22;9038;48.208;16.308;2023-05-20T05:06:13;15.30;99.90
17827;DHT22;9038;48.208;16.308;2023-05-20T05:08:15;15.50;99.90
17827;DHT22;9038;48.208;16.308;2023-05-20T05:10:17;15.70;99.90
17827;DHT22;9038;48.208;16.308;2023-05-20T05:12:20;15.90;99.90
17827;DHT22;9038;48.208;16.308;2023-05-20T05:14:21;16.10;99.90
17827;DHT22;9038;48.208;16.308;2023-05-20T05:16:23;16.20;99.90
17827;DHT22;9038;48.208;16.308;2023-05-20T05:18:25;16.40;99.90
17827;DHT22;9038;48.208;16.308;2023-05-20T05:20:27;16.40;99.90
17827;DHT22;9038;48.208;16.308;2023-05-20T05:22:29;16.50;99.90
17827;DHT22;9038;48.208;16.308;2023-05-20T05:24:30;16.50;99.90
17827;DHT22;9038;48.208;16.308;2023-05-20T05:26:32;16.40;99.90
17827;DHT22;9038;48.208;16.308;2023-05-20T05:28:35;16.30;99.90
17827;DHT22;9038;48.208;16.308;2023-05-20T05:30:37;16.30;99.90
17827;DHT22;9038;48.208;16.308;2023-05-20T05:32:39;16.30;99.90
17827;DHT22;9038;48.208;16.308;2023-05-20T05:34:40;16.30;99.90
17827;DHT22;9038;48.208;16.308;2023-05-20T05:36:42;16.50;99.90
17827;DHT22;9038;48.208;16.308;2023-05-20T05:38:44;16.60;99.90
17827;DHT22;9038;48.208;16.308;2023-05-20T05:40:45;16.70;99.90
17827;DHT22;9038;48.208;16.308;2023-05-20T05:42:47;16.80;99.90
17827;DHT22;9038;48.208;16.308;2023-05-20T05:44:50;16.80;99.90
17827;DHT22;9038;48.208;16.308;2023-05-20T05:46:52;16.90;99.90
17827;DHT22;9038;48.208;16.308;2023-05-20T05:48:54;17.10;99.90
17827;DHT22;9038;48.208;16.308;2023-05-20T05:50:58;17.40;99.90
17827;DHT22;9038;48.208;16.308;2023-05-20T05:52:59;17.60;99.90
17827;DHT22;9038;48.208;16.308;2023-05-20T05:55:01;17.80;99.90
17827;DHT22;9038;48.208;16.308;2023-05-20T05:57:03;17.90;99.90
17827;DHT22;9038;48.208;16.308;2023-05-20T05:59:07;18.00;99.90
17827;DHT22;9038;48.208;16.308;2023-05-20T06:01:10;18.10;99.90
17827;DHT22;9038;48.208;16.308;2023-05-20T06:03:11;18.10;99.90
17827;DHT22;9038;48.208;16.308;2023-05-20T06:05:13;18.00;99.90
17827;DHT22;9038;48.208;16.308;2023-05-20T06:07:15;17.90;99.90
17827;DHT22;9038;48.208;16.308;2023-05-20T06:09:17;17.90;99.90
17827;DHT22;9038;48.208;16.308;2023-05-20T06:11:18;17.80;99.90
17827;DHT22;9038;48.208;16.308;2023-05-20T06:13:21;17.70;99.90
17827;DHT22;9038;48.208;16.308;2023-05-20T06:15:22;17.70;99.90
17827;DHT22;9038;48.208;16.308;2023-05-20T06:17:25;17.60;99.90
17827;DHT22;9038;48.208;16.308;2023-05-20T06:19:27;17.60;99.90
17827;DHT22;9038;48.208;16.308;2023-05-20T06:21:29;17.70;99.90
17827;DHT22;9038;48.208;16.308;2023-05-20T06:23:30;17.90;99.90
17827;DHT22;9038;48.208;16.308;2023-05-20T06:25:32;18.00;99.90
17827;DHT22;9038;48.208;16.308;2023-05-20T06:27:34;18.10;99.90
17827;DHT22;9038;48.208;16.308;2023-05-20T06:29:35;18.00;99.90
17827;DHT22;9038;48.208;16.308;2023-05-20T06:31:37;18.00;99.90
17827;DHT22;9038;48.208;16.308;2023-05-20T06:33:41;18.00;99.90
17827;DHT22;9038;48.208;16.308;2023-05-20T06:35:42;18.10;99.90
17827;DHT22;9038;48.208;16.308;2023-05-20T06:37:44;18.20;99.90
17827;DHT22;9038;48.208;16.308;2023-05-20T06:39:46;18.30;99.90
17827;DHT22;9038;48.208;16.308;2023-05-20T06:41:52;18.40;99.90
17827;DHT22;9038;48.208;16.308;2023-05-20T06:43:54;18.50;99.90
17827;DHT22;9038;48.208;16.308;2023-05-20T06:45:56;18.60;99.90
17827;DHT22;9038;48.208;16.308;2023-05-20T06:47:58;18.60;99.90
17827;DHT22;9038;48.208;16.308;2023-05-20T06:50:01;18.60;99.90
17827;DHT22;9038;48.208;16.308;2023-05-20T06:52:03;18.60;99.90
17827;DHT22;9038;48.208;16.308;2023-05-20T06:54:04;18.60;99.90
17827;DHT22;9038;48.208;16.308;2023-05-20T06:56:06;18.80;99.90
17827;DHT22;9038;48.208;16.308;2023-05-20T06:58:08;19.00;99.90
17827;DHT22;9038;48.208;16.308;2023-05-20T07:00:10;19.20;99.90
17827;DHT22;9038;48.208;16.308;2023-05-20T07:02:13;19.20;99.90
17827;DHT22;9038;48.208;16.308;2023-05-20T07:04:14;19.40;99.90
17827;DHT22;9038;48.208;16.308;2023-05-20T07:06:17;19.50;99.90
17827;DHT22;9038;48.208;16.308;2023-05-20T07:08:19;19.70;99.90
17827;DHT22;9038;48.208;16.308;2023-05-20T07:10:21;19.70;99.90
17827;DHT22;9038;48.208;16.308;2023-05-20T07:12:23;19.60;99.90
17827;DHT22;9038;48.208;16.308;2023-05-20T07:14:24;19.60;99.90
17827;DHT22;9038;48.208;16.308;2023-05-20T07:16:26;19.80;99.90
17827;DHT22;9038;48.208;16.308;2023-05-20T07:18:28;20.10;99.90
17827;DHT22;9038;48.208;16.308;2023-05-20T07:20:30;20.20;99.90
17827;DHT22;9038;48.208;16.308;2023-05-20T07:22:33;20.10;99.90
17827;DHT22;9038;48.208;16.308;2023-05-20T07:24:35;20.20;99.90
17827;DHT22;9038;48.208;16.308;2023-05-20T07:26:37;20.10;99.90
17827;DHT22;9038;48.208;16.308;2023-05-20T07:28:39;20.10;99.90
17827;DHT22;9038;48.208;16.308;2023-05-20T07:30:40;20.10;99.90
17827;DHT22;9038;48.208;16.308;2023-05-20T07:32:42;20.00;99.90
17827;DHT22;9038;48.208;16.308;2023-05-20T07:34:44;20.20;99.90
17827;DHT22;9038;48.208;16.308;2023-05-20T07:38:49;21.40;99.90
17827;DHT22;9038;48.208;16.308;2023-05-20T07:40:50;22.30;99.90
17827;DHT22;9038;48.208;16.308;2023-05-20T07:42:52;23.10;99.90
17827;DHT22;9038;48.208;16.308;2023-05-20T07:44:54;23.40;99.90
17827;DHT22;9038;48.208;16.308;2023-05-20T07:46:55;23.20;99.90
17827;DHT22;9038;48.208;16.308;2023-05-20T07:48:57;23.10;99.90
17827;DHT22;9038;48.208;16.308;2023-05-20T07:50:59;23.10;99.90
17827;DHT22;9038;48.208;16.308;2023-05-20T07:53:01;23.70;99.90
17827;DHT22;9038;48.208;16.308;2023-05-20T07:55:04;24.50;99.90
17827;DHT22;9038;48.208;16.308;2023-05-20T07:57:06;25.40;99.90
17827;DHT22;9038;48.208;16.308;2023-05-20T07:59:08;26.40;99.90
17827;DHT22;9038;48.208;16.308;2023-05-20T08:01:10;27.00;99.90
17827;DHT22;9038;48.208;16.308;2023-05-20T08:03:12;27.30;99.90
17827;DHT22;9038;48.208;16.308;2023-05-20T08:05:13;27.70;99.90
17827;DHT22;9038;48.208;16.308;2023-05-20T08:07:15;28.40;99.90
17827;DHT22;9038;48.208;16.308;2023-05-20T08:09:17;28.90;99.90
17827;DHT22;9038;48.208;16.308;2023-05-20T08:11:20;29.50;99.90
17827;DHT22;9038;48.208;16.308;2023-05-20T08:13:22;29.80;99.90
17827;DHT22;9038;48.208;16.308;2023-05-20T08:15:24;29.90;99.90
17827;DHT22;9038;48.208;16.308;2023-05-20T08:17:26;29.60;99.90
17827;DHT22;9038;48.208;16.308;2023-05-20T08:19:27;29.20;99.90
17827;DHT22;9038;48.208;16.308;2023-05-20T08:21:29;29.00;99.90
17827;DHT22;9038;48.208;16.308;2023-05-20T08:23:31;28.90;99.90
17827;DHT22;9038;48.208;16.308;2023-05-20T08:25:33;29.10;99.90
17827;DHT22;9038;48.208;16.308;2023-05-20T08:27:36;29.00;99.90
17827;DHT22;9038;48.208;16.308;2023-05-20T08:29:38;28.80;99.90
17827;DHT22;9038;48.208;16.308;2023-05-20T08:31:39;28.20;99.90
17827;DHT22;9038;48.208;16.308;2023-05-20T08:33:41;27.70;99.90
17827;DHT22;9038;48.208;16.308;2023-05-20T08:35:43;27.60;99.90
17827;DHT22;9038;48.208;16.308;2023-05-20T08:37:51;27.60;99.90
17827;DHT22;9038;48.208;16.308;2023-05-20T08:39:54;27.80;99.90
17827;DHT22;9038;48.208;16.308;2023-05-20T08:41:56;27.90;99.90
17827;DHT22;9038;48.208;16.308;2023-05-20T08:43:59;28.30;99.90
17827;DHT22;9038;48.208;16.308;2023-05-20T08:46:01;28.60;99.90
17827;DHT22;9038;48.208;16.308;2023-05-20T08:48:12;29.00;99.90
17827;DHT22;9038;48.208;16.308;2023-05-20T08:50:14;29.60;99.90
17827;DHT22;9038;48.208;16.308;2023-05-20T08:54:18;31.30;99.90
17827;DHT22;9038;48.208;16.308;2023-05-20T08:56:23;31.60;99.50
17827;DHT22;9038;48.208;16.308;2023-05-20T08:58:26;31.20;98.20
17827;DHT22;9038;48.208;16.308;2023-05-20T09:00:30;30.40;98.70
17827;DHT22;9038;48.208;16.308;2023-05-20T09:02:31;29.90;99.50
17827;DHT22;9038;48.208;16.308;2023-05-20T09:04:33;29.40;99.80
17827;DHT22;9038;48.208;16.308;2023-05-20T09:06:41;29.20;99.90
17827;DHT22;9038;48.208;16.308;2023-05-20T09:08:43;28.70;99.90
17827;DHT22;9038;48.208;16.308;2023-05-20T09:10:45;28.20;99.90
17827;DHT22;9038;48.208;16.308;2023-05-20T09:12:47;27.80;99.90
17827;DHT22;9038;48.208;16.308;2023-05-20T09:14:49;27.60;99.90
17827;DHT22;9038;48.208;16.308;2023-05-20T09:16:52;27.50;99.90
17827;DHT22;9038;48.208;16.308;2023-05-20T09:18:54;27.50;99.90
17827;DHT22;9038;48.208;16.308;2023-05-20T09:20:56;27.80;99.90
17827;DHT22;9038;48.208;16.308;2023-05-20T09:22:58;28.10;99.90
17827;DHT22;9038;48.208;16.308;2023-05-20T09:25:00;28.70;99.90
17827;DHT22;9038;48.208;16.308;2023-05-20T09:27:02;29.30;99.90
17827;DHT22;9038;48.208;16.308;2023-05-20T09:29:04;29.90;99.90
17827;DHT22;9038;48.208;16.308;2023-05-20T09:31:05;30.50;99.80
17827;DHT22;9038;48.208;16.308;2023-05-20T09:33:10;30.70;98.60
17827;DHT22;9038;48.208;16.308;2023-05-20T09:35:13;30.70;98.20
17827;DHT22;9038;48.208;16.308;2023-05-20T09:37:16;31.00;98.60
17827;DHT22;9038;48.208;16.308;2023-05-20T09:39:19;31.50;96.90
17827;DHT22;9038;48.208;16.308;2023-05-20T09:41:26;32.30;96.40
17827;DHT22;9038;48.208;16.308;2023-05-20T09:43:33;33.00;94.50
17827;DHT22;9038;48.208;16.308;2023-05-20T09:45:34;33.60;93.30
17827;DHT22;9038;48.208;16.308;2023-05-20T09:47:37;34.00;92.20
17827;DHT22;9038;48.208;16.308;2023-05-20T09:49:40;34.70;90.80
17827;DHT22;9038;48.208;16.308;2023-05-20T09:51:42;34.80;88.60
17827;DHT22;9038;48.208;16.308;2023-05-20T09:53:44;35.50;85.90
17827;DHT22;9038;48.208;16.308;2023-05-20T09:55:46;35.80;83.20
17827;DHT22;9038;48.208;16.308;2023-05-20T09:57:48;36.30;79.50
17827;DHT22;9038;48.208;16.308;2023-05-20T09:59:49;36.50;77.00
17827;DHT22;9038;48.208;16.308;2023-05-20T10:01:52;36.40;74.50
17827;DHT22;9038;48.208;16.308;2023-05-20T10:03:53;36.30;74.50
17827;DHT22;9038;48.208;16.308;2023-05-20T10:06:00;36.30;72.60
17827;DHT22;9038;48.208;16.308;2023-05-20T10:08:10;36.40;71.30
17827;DHT22;9038;48.208;16.308;2023-05-20T10:10:18;36.60;70.90
17827;DHT22;9038;48.208;16.308;2023-05-20T10:12:28;36.50;69.60
17827;DHT22;9038;48.208;16.308;2023-05-20T10:14:39;36.70;68.60
17827;DHT22;9038;48.208;16.308;2023-05-20T10:16:45;37.30;67.40
17827;DHT22;9038;48.208;16.308;2023-05-20T10:18:51;37.80;64.10
17827;DHT22;9038;48.208;16.308;2023-05-20T10:20:55;37.60;63.30
17827;DHT22;9038;48.208;16.308;2023-05-20T10:22:58;37.60;64.00
17827;DHT22;9038;48.208;16.308;2023-05-20T10:25:03;37.90;61.00
17827;DHT22;9038;48.208;16.308;2023-05-20T10:27:07;38.40;61.30
17827;DHT22;9038;48.208;16.308;2023-05-20T10:29:15;38.50;59.50
17827;DHT22;9038;48.208;16.308;2023-05-20T10:31:19;38.10;58.10
17827;DHT22;9038;48.208;16.308;2023-05-20T10:33:21;37.70;59.00
17827;DHT22;9038;48.208;16.308;2023-05-20T10:35:23;37.30;57.80
17827;DHT22;9038;48.208;16.308;2023-05-20T10:37:27;36.60;59.20
17827;DHT22;9038;48.208;16.308;2023-05-20T10:39:31;35.70;60.80
17827;DHT22;9038;48.208;16.308;2023-05-20T10:41:33;34.80;61.70
17827;DHT22;9038;48.208;16.308;2023-05-20T10:43:36;34.70;63.20
17827;DHT22;9038;48.208;16.308;2023-05-20T10:45:48;35.10;62.70
17827;DHT22;9038;48.208;16.308;2023-05-20T10:47:52;35.20;62.70
17827;DHT22;9038;48.208;16.308;2023-05-20T10:49:55;35.40;62.80
17827;DHT22;9038;48.208;16.308;2023-05-20T10:51:58;35.20;62.90
17827;DHT22;9038;48.208;16.308;2023-05-20T10:54:00;35.60;63.30
17827;DHT22;9038;48.208;16.308;2023-05-20T10:56:03;36.80;62.00
17827;DHT22;9038;48.208;16.308;2023-05-20T10:58:05;37.00;59.50
17827;DHT22;9038;48.208;16.308;2023-05-20T11:00:08;37.00;59.40
17827;DHT22;9038;48.208;16.308;2023-05-20T11:02:11;36.90;59.30
17827;DHT22;9038;48.208;16.308;2023-05-20T11:04:13;37.10;59.20
17827;DHT22;9038;48.208;16.308;2023-05-20T11:06:16;36.70;59.40
17827;DHT22;9038;48.208;16.308;2023-05-20T11:08:17;37.20;58.90
17827;DHT22;9038;48.208;16.308;2023-05-20T11:10:20;37.40;58.40
17827;DHT22;9038;48.208;16.308;2023-05-20T11:12:25;37.20;57.90
17827;DHT22;9038;48.208;16.308;2023-05-20T11:14:27;37.00;58.00
17827;DHT22;9038;48.208;16.308;2023-05-20T11:16:29;36.50;58.10
17827;DHT22;9038;48.208;16.308;2023-05-20T11:18:30;35.90;58.80
17827;DHT22;9038;48.208;16.308;2023-05-20T11:20:32;35.60;59.10
17827;DHT22;9038;48.208;16.308;2023-05-20T11:22:35;35.40;59.20
17827;DHT22;9038;48.208;16.308;2023-05-20T11:24:36;35.20;60.60
17827;DHT22;9038;48.208;16.308;2023-05-20T11:26:38;35.70;60.60
17827;DHT22;9038;48.208;16.308;2023-05-20T11:28:41;36.00;59.90
17827;DHT22;9038;48.208;16.308;2023-05-20T11:30:43;36.20;59.10
17827;DHT22;9038;48.208;16.308;2023-05-20T11:32:55;36.20;57.80
17827;DHT22;9038;48.208;16.308;2023-05-20T11:34:57;36.30;57.60
17827;DHT22;9038;48.208;16.308;2023-05-20T11:36:58;36.30;57.60
17827;DHT22;9038;48.208;16.308;2023-05-20T11:39:00;36.70;57.70
17827;DHT22;9038;48.208;16.308;2023-05-20T11:41:04;36.80;56.60
17827;DHT22;9038;48.208;16.308;2023-05-20T11:43:06;35.10;58.20
17827;DHT22;9038;48.208;16.308;2023-05-20T11:47:14;32.80;62.40
17827;DHT22;9038;48.208;16.308;2023-05-20T11:49:16;32.70;65.30
17827;DHT22;9038;48.208;16.308;2023-05-20T11:51:17;33.10;64.60
17827;DHT22;9038;48.208;16.308;2023-05-20T11:53:20;33.80;64.20
17827;DHT22;9038;48.208;16.308;2023-05-20T11:55:21;35.00;61.90
17827;DHT22;9038;48.208;16.308;2023-05-20T11:57:23;35.70;58.20
17827;DHT22;9038;48.208;16.308;2023-05-20T11:59:25;35.90;57.80
17827;DHT22;9038;48.208;16.308;2023-05-20T12:01:28;36.30;57.10
17827;DHT22;9038;48.208;16.308;2023-05-20T12:03:31;35.80;56.60
17827;DHT22;9038;48.208;16.308;2023-05-20T12:05:33;35.80;57.20
17827;DHT22;9038;48.208;16.308;2023-05-20T12:07:35;35.30;57.80
17827;DHT22;9038;48.208;16.308;2023-05-20T12:09:37;34.60;58.60
17827;DHT22;9038;48.208;16.308;2023-05-20T12:11:39;34.20;58.90
17827;DHT22;9038;48.208;16.308;2023-05-20T12:13:41;33.60;60.10
17827;DHT22;9038;48.208;16.308;2023-05-20T12:15:42;32.80;61.30
17827;DHT22;9038;48.208;16.308;2023-05-20T12:17:45;32.50;62.10
17827;DHT22;9038;48.208;16.308;2023-05-20T12:19:49;33.00;62.40
17827;DHT22;9038;48.208;16.308;2023-05-20T12:21:50;33.90;60.60
17827;DHT22;9038;48.208;16.308;2023-05-20T12:23:52;33.90;59.30
17827;DHT22;9038;48.208;16.308;2023-05-20T12:25:56;33.60;60.30
17827;DHT22;9038;48.208;16.308;2023-05-20T12:28:00;33.50;60.60
17827;DHT22;9038;48.208;16.308;2023-05-20T12:30:02;33.40;60.00
17827;DHT22;9038;48.208;16.308;2023-05-20T12:32:04;33.00;60.60
17827;DHT22;9038;48.208;16.308;2023-05-20T12:34:06;32.60;61.60
17827;DHT22;9038;48.208;16.308;2023-05-20T12:36:09;32.00;63.80
17827;DHT22;9038;48.208;16.308;2023-05-20T12:38:11;31.90;65.20
17827;DHT22;9038;48.208;16.308;2023-05-20T12:40:12;32.30;63.90
17827;DHT22;9038;48.208;16.308;2023-05-20T12:42:14;32.60;63.00
17827;DHT22;9038;48.208;16.308;2023-05-20T12:44:16;33.50;62.10
17827;DHT22;9038;48.208;16.308;2023-05-20T12:46:17;33.10;60.70
17827;DHT22;9038;48.208;16.308;2023-05-20T12:48:19;33.00;62.40
17827;DHT22;9038;48.208;16.308;2023-05-20T12:50:21;33.30;62.60
17827;DHT22;9038;48.208;16.308;2023-05-20T12:52:24;33.20;62.10
17827;DHT22;9038;48.208;16.308;2023-05-20T12:54:26;32.70;62.30
17827;DHT22;9038;48.208;16.308;2023-05-20T12:56:28;32.70;62.70
17827;DHT22;9038;48.208;16.308;2023-05-20T12:58:30;32.80;61.70